Weather History for Hillsdale, MI

Change the Weather History Date:

Monday, December 10, 2012

  Actual Average Record
Temperature  
Mean Temperature 36 °F -  
Max Temperature 42 °F 36 °F 62 °F (1971)
Min Temperature 29 °F 21 °F -3 °F (1958)
Degree Days  
Heating Degree Days 29    
Moisture  
Dew Point 33 °F    
Average Humidity 87    
Maximum Humidity 99    
Minimum Humidity 74    
Precipitation  
Precipitation 0.00 in - - ()
Sea Level Pressure  
Sea Level Pressure 29.69 in    
Wind  
Wind Speed 11 mph (WNW)    
Max Wind Speed 22 mph    
Max Gust Speed 25 mph    
Visibility 9 miles    
Events Snow    
Averages and records for this station are not official NWS values.
T = Trace of Precipitation, MM = Missing Value Source: NWS Daily Summary

Daily Weather History Graph

Daily Weather History Graph

Search for Another Location

Airport:

Trip Planner

Search our weather history database for the weather conditions in past years. The results will help you decide how hot, cold, wet, or windy it might be!

Date:

Astronomy

Dec. 10, 2012 Rise Set
Actual Time 7:55 AM EST 5:07 PM EST
Civil Twilight 7:24 AM EST 5:38 PM EST
Nautical Twilight 6:49 AM EST 6:13 PM EST
Astronomical Twilight 6:15 AM EST 6:47 PM EST
Moon 4:36 AM EST (12/10) 2:57 PM EST (12/10)
Length of Visible Light 10h 14m
Length of Day
9h 11m
Waning Crescent, 10% of the Moon is Illuminated
Dec 10
Waning Crescent
Dec 13
New
Dec 20
First Quarter
Dec 28
Full
Jan 4
Last Quarter

Hourly Weather History & Observations

Time (EST) Temp. Windchill Dew Point Humidity Pressure Visibility Wind Dir Wind Speed Gust Speed Precip Events Conditions
12:14 AM 42.6 °F 36.8 °F 42.4 °F 99% 29.64 in 1.0 mi West 10.4 mph - N/A   Overcast
12:35 AM 42.3 °F 36.8 °F 42.1 °F 99% 29.64 in 3.0 mi West 9.2 mph 18.4 mph N/A   Overcast
12:55 AM 42.3 °F 36.3 °F 42.1 °F 99% 29.63 in 3.0 mi West 10.4 mph - N/A   Overcast
1:14 AM 42.3 °F 36.8 °F 42.1 °F 99% 29.63 in 4.0 mi West 9.2 mph - N/A   Overcast
1:35 AM 41.7 °F 35.2 °F 41.5 °F 99% 29.62 in 4.0 mi West 11.5 mph 18.4 mph N/A   Overcast
1:54 AM 41.7 °F 34.8 °F 41.5 °F 99% 29.62 in 7.0 mi West 12.7 mph 17.3 mph N/A   Overcast
2:15 AM 41.5 °F 34.6 °F 41.4 °F 99% 29.62 in 7.0 mi West 12.7 mph 19.6 mph N/A   Overcast
2:34 AM 41.4 °F 34.7 °F 41.2 °F 99% 29.62 in 7.0 mi West 11.5 mph 16.1 mph N/A   Overcast
2:54 AM 41.5 °F 35.4 °F 41.2 °F 99% 29.63 in 10.0 mi West 10.4 mph - N/A   Overcast
3:15 AM 41.4 °F 34.3 °F 40.6 °F 97% 29.63 in 7.0 mi West 12.7 mph - N/A   Overcast
3:54 AM 40.6 °F 32.7 °F 39.9 °F 97% 29.62 in 7.0 mi West 15.0 mph 19.6 mph N/A   Overcast
4:15 AM 40.5 °F 32.1 °F 39.4 °F 96% 29.61 in 10.0 mi West 16.1 mph 21.9 mph N/A   Overcast
4:34 AM 39.9 °F 32.9 °F 38.7 °F 95% 29.61 in 10.0 mi West 11.5 mph 17.3 mph N/A   Overcast
4:55 AM 39.9 °F 32.9 °F 38.8 °F 96% 29.62 in 5.0 mi West 11.5 mph 19.6 mph N/A   Overcast
5:15 AM 39.6 °F 29.5 °F 38.5 °F 96% 29.62 in 5.0 mi West 21.9 mph 25.3 mph N/A   Overcast
5:34 AM 38.7 °F 29.1 °F 37.8 °F 97% 29.62 in 7.0 mi West 18.4 mph 23.0 mph N/A   Overcast
5:55 AM 38.5 °F 31.1 °F 37.0 °F 95% 29.62 in 10.0 mi West 11.5 mph 19.6 mph N/A   Overcast
6:15 AM 38.5 °F 31.1 °F 36.3 °F 92% 29.62 in 10.0 mi West 11.5 mph 23.0 mph N/A   Overcast
6:34 AM 38.5 °F 31.6 °F 36.3 °F 92% 29.62 in 10.0 mi West 10.4 mph 16.1 mph N/A   Overcast
6:55 AM 38.5 °F 31.1 °F 36.0 °F 91% 29.63 in 10.0 mi West 11.5 mph 18.4 mph N/A   Overcast
7:15 AM 38.5 °F 31.6 °F 35.8 °F 90% 29.63 in 10.0 mi West 10.4 mph - N/A   Overcast
7:34 AM 38.5 °F 32.1 °F 35.8 °F 90% 29.64 in 10.0 mi West 9.2 mph 17.3 mph N/A   Overcast
8:14 AM 38.5 °F 30.7 °F 34.9 °F 87% 29.65 in 10.0 mi West 12.7 mph - N/A   Overcast
8:34 AM 38.1 °F 31.2 °F 34.9 °F 88% 29.65 in 10.0 mi West 10.4 mph 18.4 mph N/A   Overcast
8:55 AM 37.9 °F 29.6 °F 35.1 °F 89% 29.66 in 10.0 mi West 13.8 mph - N/A   Overcast
9:14 AM 37.8 °F 29.4 °F 35.1 °F 90% 29.66 in 10.0 mi West 13.8 mph 18.4 mph N/A   Overcast
9:35 AM 37.8 °F 29.8 °F 35.2 °F 91% 29.66 in 10.0 mi West 12.7 mph 16.1 mph N/A   Overcast
9:54 AM 37.8 °F 30.7 °F 35.2 °F 91% 29.66 in 10.0 mi West 10.4 mph - N/A   Overcast
10:15 AM 37.8 °F 29.0 °F 35.6 °F 92% 29.66 in 10.0 mi West 15.0 mph 18.4 mph N/A   Overcast
10:34 AM 37.8 °F 29.0 °F 34.9 °F 89% 29.67 in 10.0 mi West 15.0 mph 21.9 mph N/A   Overcast
10:54 AM 37.8 °F 29.4 °F 34.5 °F 88% 29.68 in 10.0 mi West 13.8 mph 23.0 mph N/A   Overcast
11:15 AM 37.0 °F 27.4 °F 33.6 °F 87% 29.68 in 10.0 mi WNW 17.3 mph 20.7 mph N/A   Overcast
11:34 AM 37.6 °F 28.8 °F 33.6 °F 86% 29.68 in 10.0 mi West 15.0 mph 20.7 mph N/A   Overcast
11:54 AM 37.6 °F 30.5 °F 33.6 °F 86% 29.67 in 10.0 mi WNW 10.4 mph - N/A   Overcast
12:15 PM 37.8 °F 28.0 °F 33.1 °F 83% 29.66 in 10.0 mi WNW 18.4 mph - N/A   Mostly Cloudy
12:34 PM 37.8 °F 29.0 °F 33.3 °F 84% 29.66 in 10.0 mi West 15.0 mph - N/A   Mostly Cloudy
12:55 PM 37.8 °F 28.6 °F 33.3 °F 84% 29.65 in 10.0 mi West 16.1 mph 19.6 mph N/A   Overcast
1:15 PM 36.9 °F 27.8 °F 32.9 °F 86% 29.66 in 10.0 mi West 15.0 mph 19.6 mph N/A   Overcast
1:34 PM 36.5 °F 27.8 °F 33.1 °F 87% 29.66 in 10.0 mi West 13.8 mph - N/A   Overcast
1:55 PM 36.0 °F 29.6 °F 33.4 °F 91% 29.66 in 4.0 mi WNW 8.1 mph - N/A Snow Light Snow
2:14 PM 36.3 °F 28.4 °F 33.4 °F 89% 29.66 in 10.0 mi WNW 11.5 mph - N/A   Overcast
2:34 PM 36.1 °F 28.7 °F 32.5 °F 87% 29.66 in 10.0 mi West 10.4 mph - N/A   Overcast
2:55 PM 36.1 °F 29.9 °F 32.7 °F 87% 29.67 in 10.0 mi WNW 8.1 mph - N/A   Overcast
3:14 PM 36.0 °F 29.6 °F 32.4 °F 87% 29.67 in 10.0 mi WNW 8.1 mph - N/A   Overcast
3:34 PM 36.0 °F 29.6 °F 32.9 °F 89% 29.68 in 10.0 mi WNW 8.1 mph - N/A   Overcast
3:55 PM 36.0 °F 32.1 °F 33.1 °F 89% 29.69 in 10.0 mi WNW 4.6 mph - N/A   Overcast
4:14 PM 36.0 °F 29.0 °F 30.0 °F 79% 29.69 in 10.0 mi NNW 9.2 mph - N/A   Overcast
4:34 PM 35.4 °F 29.0 °F 28.9 °F 77% 29.69 in 10.0 mi NNW 8.1 mph - N/A   Overcast
4:55 PM 35.2 °F 28.1 °F 29.1 °F 78% 29.71 in 10.0 mi North 9.2 mph - N/A   Overcast
5:14 PM 34.7 °F 26.9 °F 29.3 °F 81% 29.72 in 10.0 mi North 10.4 mph - N/A   Overcast
5:35 PM 34.0 °F 27.2 °F 28.8 °F 81% 29.73 in 10.0 mi North 8.1 mph - N/A   Overcast
5:55 PM 33.6 °F 29.4 °F 28.6 °F 82% 29.74 in 10.0 mi North 4.6 mph - N/A   Overcast
6:14 PM 33.6 °F 29.4 °F 28.4 °F 81% 29.75 in 10.0 mi NNW 4.6 mph - N/A   Overcast
6:34 PM 33.6 °F - 28.4 °F 81% 29.76 in 10.0 mi Calm Calm - N/A   Overcast
6:54 PM 33.3 °F 28.9 °F 28.8 °F 84% 29.75 in 10.0 mi NW 4.6 mph - N/A   Overcast
7:14 PM 33.3 °F 27.1 °F 28.8 °F 84% 29.76 in 10.0 mi NW 6.9 mph - N/A   Overcast
7:35 PM 33.8 °F 26.4 °F 28.0 °F 79% 29.77 in 10.0 mi NW 9.2 mph - N/A   Overcast
7:55 PM 33.6 °F 26.2 °F 28.2 °F 81% 29.78 in 10.0 mi NW 9.2 mph - N/A   Overcast
8:15 PM 33.4 °F 25.4 °F 27.3 °F 78% 29.79 in 10.0 mi NNW 10.4 mph - N/A   Overcast
8:34 PM 33.3 °F 25.1 °F 26.6 °F 77% 29.79 in 10.0 mi NW 10.4 mph - N/A   Overcast
8:55 PM 32.7 °F 24.5 °F 26.4 °F 78% 29.79 in 10.0 mi NNW 10.4 mph - N/A   Overcast
9:15 PM 32.7 °F 23.9 °F 26.6 °F 78% 29.81 in 10.0 mi NW 11.5 mph - N/A   Overcast
9:55 PM 31.6 °F 23.7 °F 25.2 °F 77% 29.82 in 10.0 mi NNW 9.2 mph - N/A   Overcast
10:14 PM 31.5 °F 23.5 °F 23.9 °F 74% 29.82 in 10.0 mi NNW 9.2 mph - N/A   Overcast
10:34 PM 30.9 °F 24.3 °F 24.1 °F 76% 29.83 in 10.0 mi NW 6.9 mph - N/A   Overcast
10:54 PM 30.9 °F 24.3 °F 24.3 °F 76% 29.84 in 10.0 mi NW 6.9 mph - N/A   Overcast
11:14 PM 30.7 °F 24.9 °F 24.3 °F 77% 29.84 in 10.0 mi NNW 5.8 mph - N/A   Overcast
11:34 PM 30.7 °F 26.0 °F 24.4 °F 77% 29.84 in 10.0 mi NNW 4.6 mph - N/A   Overcast
11:54 PM 29.8 °F 26.3 °F 23.9 °F 79% 29.85 in 10.0 mi NW 3.5 mph - N/A   Overcast